Archival Weather

Fukuoka

Fukuoka, Japan (RJFF)

Report from: Tuesday, August 16, 2022 2:00 AM JST
Current time: Sunday, November 27, 2022 4:57 PM JST

Current weather
Weather history
Weather forecast

Temperature28.0°C (82.4°F)
Heat index32.7°C (90.9°F)
Dew point25.0°C (77.0°F)
Winds 9 kts (4.6 m/s, 10.4 mph) South-Southeast (150°)
Visibility6.2 mi. (10 km)
Clouds Few clouds 3,800 ft. (1,158 m)
Scattered clouds 5,000 ft. (1,524 m)
Altimeter29.71 in.Hg (1006 mB)
Relative humidity84 %
Density altitude2,163 ft. (659 m)
Remarks Fully automated report
No significant changes expected in the next two hours
Flight conditions Visual Meteorological Conditions
Raw dataRJFF 151700Z AUTO 15009KT 9999 FEW038 SCT050 //////TCU 28/25 Q1006 NOSIG
An error has occurred. This application may no longer respond until reloaded. Reload 🗙